sensor_id;sensor_type;location;lat;lon;timestamp;P1;durP1;ratioP1;P2;durP2;ratioP2
25609;SDS011;13479;49.044;8.716;2024-01-15T05:02:19;44.53;;;15.60;;
25609;SDS011;13479;49.044;8.716;2024-01-15T05:04:45;43.97;;;14.67;;
25609;SDS011;13479;49.044;8.716;2024-01-15T05:07:10;40.70;;;14.50;;
25609;SDS011;13479;49.044;8.716;2024-01-15T05:09:35;36.93;;;12.53;;
25609;SDS011;13479;49.044;8.716;2024-01-15T05:12:00;42.53;;;14.20;;
25609;SDS011;13479;49.044;8.716;2024-01-15T05:14:26;38.20;;;13.90;;
25609;SDS011;13479;49.044;8.716;2024-01-15T05:16:51;39.07;;;14.03;;
25609;SDS011;13479;49.044;8.716;2024-01-15T05:19:16;38.73;;;13.53;;
25609;SDS011;13479;49.044;8.716;2024-01-15T05:21:42;41.33;;;14.57;;
25609;SDS011;13479;49.044;8.716;2024-01-15T05:24:07;40.10;;;14.13;;
25609;SDS011;13479;49.044;8.716;2024-01-15T05:26:33;35.30;;;11.03;;
25609;SDS011;13479;49.044;8.716;2024-01-15T05:28:58;35.23;;;12.87;;
25609;SDS011;13479;49.044;8.716;2024-01-15T05:31:24;38.10;;;14.23;;
25609;SDS011;13479;49.044;8.716;2024-01-15T05:33:49;37.07;;;12.97;;
25609;SDS011;13479;49.044;8.716;2024-01-15T05:36:14;37.93;;;12.40;;
25609;SDS011;13479;49.044;8.716;2024-01-15T05:38:40;33.20;;;11.67;;
25609;SDS011;13479;49.044;8.716;2024-01-15T05:41:05;36.03;;;13.33;;
25609;SDS011;13479;49.044;8.716;2024-01-15T05:43:31;43.97;;;15.07;;
25609;SDS011;13479;49.044;8.716;2024-01-15T05:45:56;37.57;;;12.80;;
25609;SDS011;13479;49.044;8.716;2024-01-15T05:48:21;35.03;;;13.33;;
25609;SDS011;13479;49.044;8.716;2024-01-15T05:50:47;35.80;;;13.57;;
25609;SDS011;13479;49.044;8.716;2024-01-15T05:53:12;38.50;;;13.40;;
25609;SDS011;13479;49.044;8.716;2024-01-15T05:55:37;34.77;;;13.23;;
25609;SDS011;13479;49.044;8.716;2024-01-15T05:58:05;38.77;;;13.57;;
25609;SDS011;13479;49.044;8.716;2024-01-15T06:00:31;39.00;;;14.70;;
25609;SDS011;13479;49.044;8.716;2024-01-15T06:02:57;39.20;;;13.70;;
25609;SDS011;13479;49.044;8.716;2024-01-15T06:05:23;40.70;;;15.43;;
25609;SDS011;13479;49.044;8.716;2024-01-15T06:07:48;35.30;;;12.77;;
25609;SDS011;13479;49.044;8.716;2024-01-15T06:10:14;37.10;;;13.50;;
25609;SDS011;13479;49.044;8.716;2024-01-15T06:12:39;43.07;;;15.13;;
25609;SDS011;13479;49.044;8.716;2024-01-15T06:15:04;36.03;;;14.23;;
25609;SDS011;13479;49.044;8.716;2024-01-15T06:17:30;35.63;;;13.43;;
25609;SDS011;13479;49.044;8.716;2024-01-15T06:19:56;35.20;;;13.30;;
25609;SDS011;13479;49.044;8.716;2024-01-15T06:22:22;35.83;;;13.47;;
25609;SDS011;13479;49.044;8.716;2024-01-15T06:24:47;40.60;;;15.20;;
25609;SDS011;13479;49.044;8.716;2024-01-15T06:27:12;33.17;;;12.50;;
25609;SDS011;13479;49.044;8.716;2024-01-15T06:29:38;37.77;;;13.97;;
25609;SDS011;13479;49.044;8.716;2024-01-15T06:32:04;41.27;;;15.50;;
25609;SDS011;13479;49.044;8.716;2024-01-15T06:34:29;40.73;;;15.73;;
25609;SDS011;13479;49.044;8.716;2024-01-15T06:36:54;42.70;;;15.77;;
25609;SDS011;13479;49.044;8.716;2024-01-15T06:39:20;41.13;;;14.90;;
25609;SDS011;13479;49.044;8.716;2024-01-15T06:41:45;40.50;;;13.63;;
25609;SDS011;13479;49.044;8.716;2024-01-15T06:44:11;38.33;;;14.30;;
25609;SDS011;13479;49.044;8.716;2024-01-15T06:46:36;36.10;;;13.83;;
25609;SDS011;13479;49.044;8.716;2024-01-15T06:49:02;37.40;;;14.23;;
25609;SDS011;13479;49.044;8.716;2024-01-15T06:51:27;37.30;;;14.53;;
25609;SDS011;13479;49.044;8.716;2024-01-15T06:53:53;34.37;;;13.33;;
25609;SDS011;13479;49.044;8.716;2024-01-15T06:56:19;31.07;;;11.77;;
25609;SDS011;13479;49.044;8.716;2024-01-15T06:58:44;36.50;;;13.97;;
25609;SDS011;13479;49.044;8.716;2024-01-15T07:01:09;39.33;;;14.30;;
25609;SDS011;13479;49.044;8.716;2024-01-15T07:03:35;30.17;;;11.07;;
25609;SDS011;13479;49.044;8.716;2024-01-15T07:06:00;39.30;;;15.10;;
25609;SDS011;13479;49.044;8.716;2024-01-15T07:08:25;37.70;;;13.43;;
25609;SDS011;13479;49.044;8.716;2024-01-15T07:10:51;33.13;;;12.40;;
25609;SDS011;13479;49.044;8.716;2024-01-15T07:13:16;34.90;;;13.37;;
25609;SDS011;13479;49.044;8.716;2024-01-15T07:15:42;33.80;;;12.23;;
25609;SDS011;13479;49.044;8.716;2024-01-15T07:18:07;37.30;;;14.37;;
25609;SDS011;13479;49.044;8.716;2024-01-15T07:20:33;38.23;;;12.60;;
25609;SDS011;13479;49.044;8.716;2024-01-15T07:22:58;43.00;;;15.97;;
25609;SDS011;13479;49.044;8.716;2024-01-15T07:25:24;37.53;;;14.87;;
25609;SDS011;13479;49.044;8.716;2024-01-15T07:27:51;40.10;;;15.43;;
25609;SDS011;13479;49.044;8.716;2024-01-15T07:30:16;37.20;;;13.60;;
25609;SDS011;13479;49.044;8.716;2024-01-15T07:32:42;37.20;;;14.23;;
25609;SDS011;13479;49.044;8.716;2024-01-15T07:35:07;39.10;;;13.77;;
25609;SDS011;13479;49.044;8.716;2024-01-15T07:37:33;42.20;;;15.40;;
25609;SDS011;13479;49.044;8.716;2024-01-15T07:39:58;38.77;;;15.27;;
25609;SDS011;13479;49.044;8.716;2024-01-15T07:42:24;36.37;;;14.60;;
25609;SDS011;13479;49.044;8.716;2024-01-15T07:44:49;38.47;;;14.70;;
25609;SDS011;13479;49.044;8.716;2024-01-15T07:47:16;35.47;;;14.27;;
25609;SDS011;13479;49.044;8.716;2024-01-15T07:49:42;35.00;;;12.53;;
25609;SDS011;13479;49.044;8.716;2024-01-15T07:52:07;40.37;;;12.97;;
25609;SDS011;13479;49.044;8.716;2024-01-15T07:54:33;35.63;;;13.97;;
25609;SDS011;13479;49.044;8.716;2024-01-15T07:57:01;33.03;;;12.43;;
25609;SDS011;13479;49.044;8.716;2024-01-15T07:59:31;30.23;;;10.83;;
25609;SDS011;13479;49.044;8.716;2024-01-15T08:01:57;32.30;;;13.33;;
25609;SDS011;13479;49.044;8.716;2024-01-15T08:04:23;37.43;;;14.53;;
25609;SDS011;13479;49.044;8.716;2024-01-15T08:06:49;33.53;;;13.00;;
25609;SDS011;13479;49.044;8.716;2024-01-15T08:09:14;37.93;;;13.13;;
25609;SDS011;13479;49.044;8.716;2024-01-15T08:11:40;36.50;;;13.53;;
25609;SDS011;13479;49.044;8.716;2024-01-15T08:14:06;36.30;;;14.27;;
25609;SDS011;13479;49.044;8.716;2024-01-15T08:16:32;33.63;;;12.30;;
25609;SDS011;13479;49.044;8.716;2024-01-15T08:18:57;36.43;;;13.50;;
25609;SDS011;13479;49.044;8.716;2024-01-15T08:21:23;34.77;;;13.20;;
25609;SDS011;13479;49.044;8.716;2024-01-15T08:23:48;33.33;;;12.47;;
25609;SDS011;13479;49.044;8.716;2024-01-15T08:26:13;35.90;;;13.43;;
25609;SDS011;13479;49.044;8.716;2024-01-15T08:28:39;39.70;;;13.73;;
25609;SDS011;13479;49.044;8.716;2024-01-15T08:31:04;32.60;;;13.07;;
25609;SDS011;13479;49.044;8.716;2024-01-15T08:33:29;33.67;;;12.90;;
25609;SDS011;13479;49.044;8.716;2024-01-15T08:35:55;32.67;;;11.93;;
25609;SDS011;13479;49.044;8.716;2024-01-15T08:38:20;28.70;;;11.57;;
25609;SDS011;13479;49.044;8.716;2024-01-15T08:40:45;23.90;;;9.37;;
25609;SDS011;13479;49.044;8.716;2024-01-15T08:43:11;33.10;;;12.80;;
25609;SDS011;13479;49.044;8.716;2024-01-15T08:45:36;32.27;;;12.43;;
25609;SDS011;13479;49.044;8.716;2024-01-15T08:48:02;32.60;;;12.67;;
25609;SDS011;13479;49.044;8.716;2024-01-15T08:50:28;38.13;;;11.53;;
25609;SDS011;13479;49.044;8.716;2024-01-15T08:52:54;31.40;;;11.77;;
25609;SDS011;13479;49.044;8.716;2024-01-15T08:55:20;30.10;;;9.10;;
25609;SDS011;13479;49.044;8.716;2024-01-15T08:57:47;29.93;;;12.63;;
25609;SDS011;13479;49.044;8.716;2024-01-15T09:00:13;26.73;;;11.53;;
25609;SDS011;13479;49.044;8.716;2024-01-15T09:02:38;28.03;;;10.73;;
25609;SDS011;13479;49.044;8.716;2024-01-15T09:05:04;29.40;;;10.97;;
25609;SDS011;13479;49.044;8.716;2024-01-15T09:07:29;26.27;;;10.77;;
25609;SDS011;13479;49.044;8.716;2024-01-15T09:09:54;33.73;;;11.17;;
25609;SDS011;13479;49.044;8.716;2024-01-15T09:12:20;28.03;;;10.40;;
25609;SDS011;13479;49.044;8.716;2024-01-15T09:14:47;24.60;;;10.17;;
25609;SDS011;13479;49.044;8.716;2024-01-15T09:17:12;29.80;;;10.43;;
25609;SDS011;13479;49.044;8.716;2024-01-15T09:19:38;30.20;;;10.50;;
25609;SDS011;13479;49.044;8.716;2024-01-15T09:22:04;25.40;;;10.40;;
25609;SDS011;13479;49.044;8.716;2024-01-15T09:24:30;28.80;;;11.03;;
25609;SDS011;13479;49.044;8.716;2024-01-15T09:26:55;29.40;;;11.60;;
25609;SDS011;13479;49.044;8.716;2024-01-15T09:29:20;23.37;;;9.23;;
25609;SDS011;13479;49.044;8.716;2024-01-15T09:31:48;26.47;;;10.17;;
25609;SDS011;13479;49.044;8.716;2024-01-15T09:34:14;23.60;;;10.00;;
25609;SDS011;13479;49.044;8.716;2024-01-15T09:36:40;25.13;;;10.47;;
25609;SDS011;13479;49.044;8.716;2024-01-15T09:39:06;29.30;;;11.13;;
25609;SDS011;13479;49.044;8.716;2024-01-15T09:41:33;28.07;;;10.03;;
25609;SDS011;13479;49.044;8.716;2024-01-15T09:44:00;27.17;;;10.80;;
25609;SDS011;13479;49.044;8.716;2024-01-15T09:46:28;25.70;;;9.77;;
25609;SDS011;13479;49.044;8.716;2024-01-15T09:48:53;26.70;;;11.03;;
25609;SDS011;13479;49.044;8.716;2024-01-15T09:51:19;23.93;;;10.27;;
25609;SDS011;13479;49.044;8.716;2024-01-15T09:53:45;25.13;;;10.57;;
25609;SDS011;13479;49.044;8.716;2024-01-15T09:56:11;25.77;;;10.67;;
25609;SDS011;13479;49.044;8.716;2024-01-15T09:58:37;25.63;;;10.07;;
25609;SDS011;13479;49.044;8.716;2024-01-15T10:01:04;27.50;;;11.00;;
25609;SDS011;13479;49.044;8.716;2024-01-15T10:03:29;27.93;;;10.80;;
25609;SDS011;13479;49.044;8.716;2024-01-15T10:05:55;28.50;;;11.00;;
25609;SDS011;13479;49.044;8.716;2024-01-15T10:08:24;27.23;;;11.27;;
25609;SDS011;13479;49.044;8.716;2024-01-15T10:10:50;26.30;;;10.27;;
25609;SDS011;13479;49.044;8.716;2024-01-15T10:13:15;31.53;;;12.13;;
25609;SDS011;13479;49.044;8.716;2024-01-15T10:15:41;31.77;;;11.90;;
25609;SDS011;13479;49.044;8.716;2024-01-15T10:18:07;31.07;;;12.90;;
25609;SDS011;13479;49.044;8.716;2024-01-15T10:20:33;30.67;;;12.50;;
25609;SDS011;13479;49.044;8.716;2024-01-15T10:22:58;30.77;;;12.23;;
25609;SDS011;13479;49.044;8.716;2024-01-15T10:25:24;31.63;;;12.67;;
25609;SDS011;13479;49.044;8.716;2024-01-15T10:28:00;32.50;;;11.73;;
25609;SDS011;13479;49.044;8.716;2024-01-15T10:30:27;36.33;;;13.87;;
25609;SDS011;13479;49.044;8.716;2024-01-15T10:32:59;34.63;;;13.83;;
25609;SDS011;13479;49.044;8.716;2024-01-15T10:35:35;34.97;;;13.13;;
25609;SDS011;13479;49.044;8.716;2024-01-15T10:38:01;31.73;;;12.60;;
25609;SDS011;13479;49.044;8.716;2024-01-15T10:40:28;32.10;;;12.30;;
25609;SDS011;13479;49.044;8.716;2024-01-15T10:42:54;34.33;;;12.57;;
25609;SDS011;13479;49.044;8.716;2024-01-15T10:45:20;34.50;;;12.63;;
25609;SDS011;13479;49.044;8.716;2024-01-15T10:47:45;37.13;;;13.03;;
25609;SDS011;13479;49.044;8.716;2024-01-15T10:50:11;29.47;;;12.50;;
25609;SDS011;13479;49.044;8.716;2024-01-15T10:52:37;35.63;;;14.03;;
25609;SDS011;13479;49.044;8.716;2024-01-15T10:55:05;23.97;;;9.77;;
25609;SDS011;13479;49.044;8.716;2024-01-15T10:57:32;31.90;;;12.47;;
25609;SDS011;13479;49.044;8.716;2024-01-15T10:59:58;30.03;;;12.67;;
25609;SDS011;13479;49.044;8.716;2024-01-15T11:02:24;34.60;;;13.30;;
25609;SDS011;13479;49.044;8.716;2024-01-15T11:04:50;35.17;;;13.33;;
25609;SDS011;13479;49.044;8.716;2024-01-15T11:07:15;34.67;;;12.90;;
25609;SDS011;13479;49.044;8.716;2024-01-15T11:09:41;32.37;;;12.50;;
25609;SDS011;13479;49.044;8.716;2024-01-15T11:12:07;35.93;;;13.50;;
25609;SDS011;13479;49.044;8.716;2024-01-15T11:14:38;25.10;;;9.33;;
25609;SDS011;13479;49.044;8.716;2024-01-15T11:17:03;21.20;;;8.40;;
25609;SDS011;13479;49.044;8.716;2024-01-15T11:19:46;21.10;;;8.63;;
25609;SDS011;13479;49.044;8.716;2024-01-15T11:25:18;24.43;;;10.07;;
25609;SDS011;13479;49.044;8.716;2024-01-15T11:27:50;21.07;;;8.57;;
25609;SDS011;13479;49.044;8.716;2024-01-15T11:30:16;19.90;;;8.87;;
25609;SDS011;13479;49.044;8.716;2024-01-15T11:32:42;28.50;;;10.10;;
25609;SDS011;13479;49.044;8.716;2024-01-15T11:35:08;19.83;;;8.20;;
25609;SDS011;13479;49.044;8.716;2024-01-15T11:40:17;21.63;;;8.57;;
25609;SDS011;13479;49.044;8.716;2024-01-15T11:42:46;21.20;;;7.80;;
25609;SDS011;13479;49.044;8.716;2024-01-15T11:45:13;22.90;;;8.90;;
25609;SDS011;13479;49.044;8.716;2024-01-15T11:50:17;27.23;;;8.27;;
25609;SDS011;13479;49.044;8.716;2024-01-15T11:52:43;30.27;;;11.47;;
25609;SDS011;13479;49.044;8.716;2024-01-15T11:55:27;26.03;;;9.73;;
25609;SDS011;13479;49.044;8.716;2024-01-15T11:57:54;29.20;;;9.80;;
25609;SDS011;13479;49.044;8.716;2024-01-15T12:00:20;26.23;;;9.57;;
25609;SDS011;13479;49.044;8.716;2024-01-15T12:02:47;24.43;;;9.23;;
25609;SDS011;13479;49.044;8.716;2024-01-15T12:05:14;22.63;;;8.93;;
25609;SDS011;13479;49.044;8.716;2024-01-15T12:07:41;27.13;;;9.67;;
25609;SDS011;13479;49.044;8.716;2024-01-15T12:10:17;22.23;;;8.20;;
25609;SDS011;13479;49.044;8.716;2024-01-15T12:13:00;19.37;;;8.27;;
25609;SDS011;13479;49.044;8.716;2024-01-15T12:15:29;21.33;;;8.50;;
25609;SDS011;13479;49.044;8.716;2024-01-15T12:17:55;24.40;;;9.47;;
25609;SDS011;13479;49.044;8.716;2024-01-15T12:20:25;25.10;;;9.50;;
25609;SDS011;13479;49.044;8.716;2024-01-15T12:22:51;26.50;;;10.73;;
25609;SDS011;13479;49.044;8.716;2024-01-15T12:25:17;22.57;;;8.20;;
25609;SDS011;13479;49.044;8.716;2024-01-15T12:27:42;28.27;;;10.63;;
25609;SDS011;13479;49.044;8.716;2024-01-15T12:30:10;20.53;;;8.47;;
25609;SDS011;13479;49.044;8.716;2024-01-15T12:32:40;16.03;;;5.40;;
25609;SDS011;13479;49.044;8.716;2024-01-15T12:35:07;23.70;;;9.40;;
25609;SDS011;13479;49.044;8.716;2024-01-15T12:37:34;26.13;;;7.80;;
25609;SDS011;13479;49.044;8.716;2024-01-15T12:40:00;22.07;;;9.73;;
25609;SDS011;13479;49.044;8.716;2024-01-15T12:42:26;14.13;;;5.43;;
25609;SDS011;13479;49.044;8.716;2024-01-15T12:44:54;14.43;;;6.30;;
25609;SDS011;13479;49.044;8.716;2024-01-15T12:47:21;24.20;;;9.23;;
25609;SDS011;13479;49.044;8.716;2024-01-15T12:49:46;25.30;;;9.03;;
25609;SDS011;13479;49.044;8.716;2024-01-15T12:52:15;20.37;;;5.93;;
25609;SDS011;13479;49.044;8.716;2024-01-15T12:54:40;20.00;;;8.63;;
25609;SDS011;13479;49.044;8.716;2024-01-15T12:57:05;23.07;;;8.30;;
25609;SDS011;13479;49.044;8.716;2024-01-15T12:59:31;19.03;;;7.63;;
25609;SDS011;13479;49.044;8.716;2024-01-15T13:01:56;19.03;;;8.20;;
25609;SDS011;13479;49.044;8.716;2024-01-15T13:04:22;19.57;;;8.97;;
25609;SDS011;13479;49.044;8.716;2024-01-15T13:06:48;18.50;;;8.23;;
25609;SDS011;13479;49.044;8.716;2024-01-15T13:09:14;19.33;;;8.53;;
25609;SDS011;13479;49.044;8.716;2024-01-15T13:11:40;19.03;;;7.63;;
25609;SDS011;13479;49.044;8.716;2024-01-15T13:14:05;18.80;;;7.80;;
25609;SDS011;13479;49.044;8.716;2024-01-15T13:16:31;18.93;;;8.37;;
25609;SDS011;13479;49.044;8.716;2024-01-15T13:18:56;18.43;;;8.13;;
25609;SDS011;13479;49.044;8.716;2024-01-15T13:21:21;19.43;;;8.73;;
25609;SDS011;13479;49.044;8.716;2024-01-15T13:23:47;15.77;;;6.30;;
25609;SDS011;13479;49.044;8.716;2024-01-15T13:26:13;13.10;;;6.30;;
25609;SDS011;13479;49.044;8.716;2024-01-15T13:28:38;19.33;;;7.07;;
25609;SDS011;13479;49.044;8.716;2024-01-15T13:31:03;13.63;;;6.77;;
25609;SDS011;13479;49.044;8.716;2024-01-15T13:33:29;17.77;;;7.43;;
25609;SDS011;13479;49.044;8.716;2024-01-15T13:35:55;16.43;;;7.00;;
25609;SDS011;13479;49.044;8.716;2024-01-15T13:38:20;15.17;;;7.47;;
25609;SDS011;13479;49.044;8.716;2024-01-15T13:40:45;15.83;;;7.70;;
25609;SDS011;13479;49.044;8.716;2024-01-15T13:43:11;16.47;;;7.57;;
25609;SDS011;13479;49.044;8.716;2024-01-15T13:45:39;20.13;;;7.60;;
25609;SDS011;13479;49.044;8.716;2024-01-15T13:48:04;18.70;;;8.03;;
25609;SDS011;13479;49.044;8.716;2024-01-15T13:50:31;19.43;;;8.37;;
25609;SDS011;13479;49.044;8.716;2024-01-15T13:52:56;20.47;;;8.70;;
25609;SDS011;13479;49.044;8.716;2024-01-15T13:55:22;20.37;;;8.47;;
25609;SDS011;13479;49.044;8.716;2024-01-15T13:57:48;18.07;;;7.53;;
25609;SDS011;13479;49.044;8.716;2024-01-15T14:00:13;18.87;;;8.97;;
25609;SDS011;13479;49.044;8.716;2024-01-15T14:02:43;18.13;;;7.27;;
25609;SDS011;13479;49.044;8.716;2024-01-15T14:05:08;16.33;;;6.57;;
25609;SDS011;13479;49.044;8.716;2024-01-15T14:07:34;20.97;;;9.13;;
25609;SDS011;13479;49.044;8.716;2024-01-15T14:09:59;18.10;;;8.00;;
25609;SDS011;13479;49.044;8.716;2024-01-15T14:12:24;16.97;;;8.47;;
25609;SDS011;13479;49.044;8.716;2024-01-15T14:14:51;18.97;;;8.90;;
25609;SDS011;13479;49.044;8.716;2024-01-15T14:17:17;19.17;;;8.80;;
25609;SDS011;13479;49.044;8.716;2024-01-15T14:19:42;17.70;;;8.40;;
25609;SDS011;13479;49.044;8.716;2024-01-15T14:22:08;16.53;;;8.20;;
25609;SDS011;13479;49.044;8.716;2024-01-15T14:24:33;22.47;;;9.63;;
25609;SDS011;13479;49.044;8.716;2024-01-15T14:26:59;22.03;;;10.33;;
25609;SDS011;13479;49.044;8.716;2024-01-15T14:29:24;23.93;;;13.03;;
25609;SDS011;13479;49.044;8.716;2024-01-15T14:31:51;18.67;;;9.07;;
25609;SDS011;13479;49.044;8.716;2024-01-15T14:34:17;21.63;;;8.13;;
25609;SDS011;13479;49.044;8.716;2024-01-15T14:36:43;17.17;;;8.13;;
25609;SDS011;13479;49.044;8.716;2024-01-15T14:39:08;17.13;;;8.30;;
25609;SDS011;13479;49.044;8.716;2024-01-15T14:41:34;18.73;;;9.20;;
25609;SDS011;13479;49.044;8.716;2024-01-15T14:44:00;17.43;;;8.70;;
25609;SDS011;13479;49.044;8.716;2024-01-15T14:46:25;16.10;;;7.80;;
25609;SDS011;13479;49.044;8.716;2024-01-15T14:48:52;20.80;;;9.80;;
25609;SDS011;13479;49.044;8.716;2024-01-15T14:51:17;18.67;;;8.30;;
25609;SDS011;13479;49.044;8.716;2024-01-15T14:53:43;20.40;;;9.37;;
25609;SDS011;13479;49.044;8.716;2024-01-15T14:56:09;22.67;;;9.67;;
25609;SDS011;13479;49.044;8.716;2024-01-15T14:58:35;18.40;;;9.00;;
25609;SDS011;13479;49.044;8.716;2024-01-15T15:01:00;18.70;;;10.03;;
25609;SDS011;13479;49.044;8.716;2024-01-15T15:03:26;14.67;;;6.87;;
25609;SDS011;13479;49.044;8.716;2024-01-15T15:05:51;19.97;;;8.97;;
25609;SDS011;13479;49.044;8.716;2024-01-15T15:08:16;19.47;;;8.80;;
25609;SDS011;13479;49.044;8.716;2024-01-15T15:10:41;21.10;;;11.73;;
25609;SDS011;13479;49.044;8.716;2024-01-15T15:13:07;17.00;;;8.30;;
25609;SDS011;13479;49.044;8.716;2024-01-15T15:15:33;17.33;;;8.03;;
25609;SDS011;13479;49.044;8.716;2024-01-15T15:17:59;21.67;;;10.27;;
25609;SDS011;13479;49.044;8.716;2024-01-15T15:20:25;19.67;;;8.57;;
25609;SDS011;13479;49.044;8.716;2024-01-15T15:22:50;17.90;;;8.73;;
25609;SDS011;13479;49.044;8.716;2024-01-15T15:25:20;18.27;;;9.50;;
25609;SDS011;13479;49.044;8.716;2024-01-15T15:27:46;16.60;;;6.83;;
25609;SDS011;13479;49.044;8.716;2024-01-15T15:30:12;16.67;;;8.47;;
25609;SDS011;13479;49.044;8.716;2024-01-15T15:32:37;15.47;;;7.50;;
25609;SDS011;13479;49.044;8.716;2024-01-15T15:35:03;18.53;;;9.10;;
25609;SDS011;13479;49.044;8.716;2024-01-15T15:37:28;19.40;;;8.90;;
25609;SDS011;13479;49.044;8.716;2024-01-15T15:39:55;15.60;;;7.53;;
25609;SDS011;13479;49.044;8.716;2024-01-15T15:42:20;19.23;;;8.07;;
25609;SDS011;13479;49.044;8.716;2024-01-15T15:44:46;18.33;;;8.47;;
25609;SDS011;13479;49.044;8.716;2024-01-15T15:47:12;18.07;;;8.97;;
25609;SDS011;13479;49.044;8.716;2024-01-15T15:49:39;17.83;;;7.60;;
25609;SDS011;13479;49.044;8.716;2024-01-15T15:52:04;16.30;;;7.80;;
25609;SDS011;13479;49.044;8.716;2024-01-15T15:54:30;17.10;;;7.60;;
25609;SDS011;13479;49.044;8.716;2024-01-15T15:56:55;18.43;;;8.90;;
25609;SDS011;13479;49.044;8.716;2024-01-15T15:59:20;19.50;;;6.80;;
25609;SDS011;13479;49.044;8.716;2024-01-15T16:01:47;18.63;;;8.63;;
25609;SDS011;13479;49.044;8.716;2024-01-15T16:04:13;17.17;;;8.33;;
25609;SDS011;13479;49.044;8.716;2024-01-15T16:06:39;18.60;;;9.87;;
25609;SDS011;13479;49.044;8.716;2024-01-15T16:09:05;17.87;;;7.63;;
25609;SDS011;13479;49.044;8.716;2024-01-15T16:11:31;18.13;;;7.97;;
25609;SDS011;13479;49.044;8.716;2024-01-15T16:13:57;16.73;;;8.43;;
25609;SDS011;13479;49.044;8.716;2024-01-15T16:16:22;20.03;;;11.07;;
25609;SDS011;13479;49.044;8.716;2024-01-15T16:18:47;16.93;;;8.67;;
25609;SDS011;13479;49.044;8.716;2024-01-15T16:21:13;16.87;;;8.10;;
25609;SDS011;13479;49.044;8.716;2024-01-15T16:23:38;18.17;;;7.77;;
25609;SDS011;13479;49.044;8.716;2024-01-15T16:26:03;17.67;;;7.57;;
25609;SDS011;13479;49.044;8.716;2024-01-15T16:28:29;19.13;;;8.73;;
25609;SDS011;13479;49.044;8.716;2024-01-15T16:30:54;17.93;;;9.10;;
25609;SDS011;13479;49.044;8.716;2024-01-15T16:33:20;15.93;;;7.63;;
25609;SDS011;13479;49.044;8.716;2024-01-15T16:35:45;16.03;;;6.73;;
25609;SDS011;13479;49.044;8.716;2024-01-15T16:38:10;16.70;;;7.73;;
25609;SDS011;13479;49.044;8.716;2024-01-15T16:40:36;24.23;;;10.33;;
25609;SDS011;13479;49.044;8.716;2024-01-15T16:43:02;16.80;;;7.30;;
25609;SDS011;13479;49.044;8.716;2024-01-15T16:45:27;16.93;;;6.97;;
25609;SDS011;13479;49.044;8.716;2024-01-15T16:47:52;16.17;;;7.27;;
25609;SDS011;13479;49.044;8.716;2024-01-15T16:50:17;17.67;;;7.60;;
25609;SDS011;13479;49.044;8.716;2024-01-15T16:52:43;15.10;;;7.47;;
25609;SDS011;13479;49.044;8.716;2024-01-15T16:55:09;14.20;;;7.23;;
25609;SDS011;13479;49.044;8.716;2024-01-15T16:57:34;15.77;;;6.97;;
25609;SDS011;13479;49.044;8.716;2024-01-15T16:59:59;13.60;;;6.73;;
25609;SDS011;13479;49.044;8.716;2024-01-15T17:02:25;14.57;;;7.80;;
25609;SDS011;13479;49.044;8.716;2024-01-15T17:04:50;12.00;;;6.23;;
25609;SDS011;13479;49.044;8.716;2024-01-15T17:07:15;15.17;;;6.40;;
25609;SDS011;13479;49.044;8.716;2024-01-15T17:09:41;14.43;;;6.33;;
25609;SDS011;13479;49.044;8.716;2024-01-15T17:12:08;18.20;;;6.33;;
25609;SDS011;13479;49.044;8.716;2024-01-15T17:14:33;14.83;;;6.27;;
25609;SDS011;13479;49.044;8.716;2024-01-15T17:16:59;15.20;;;6.77;;
25609;SDS011;13479;49.044;8.716;2024-01-15T17:19:24;13.77;;;6.57;;
25609;SDS011;13479;49.044;8.716;2024-01-15T17:21:51;12.50;;;5.87;;
25609;SDS011;13479;49.044;8.716;2024-01-15T17:24:18;12.10;;;5.90;;
25609;SDS011;13479;49.044;8.716;2024-01-15T17:26:43;13.40;;;6.33;;
25609;SDS011;13479;49.044;8.716;2024-01-15T17:29:09;17.27;;;8.30;;
25609;SDS011;13479;49.044;8.716;2024-01-15T17:31:34;15.53;;;7.37;;
25609;SDS011;13479;49.044;8.716;2024-01-15T17:33:59;13.27;;;5.33;;
25609;SDS011;13479;49.044;8.716;2024-01-15T17:36:25;13.43;;;5.97;;
25609;SDS011;13479;49.044;8.716;2024-01-15T17:38:50;15.03;;;6.03;;
25609;SDS011;13479;49.044;8.716;2024-01-15T17:41:15;13.63;;;6.17;;
25609;SDS011;13479;49.044;8.716;2024-01-15T17:43:41;12.17;;;5.67;;
25609;SDS011;13479;49.044;8.716;2024-01-15T17:46:06;13.93;;;6.13;;
25609;SDS011;13479;49.044;8.716;2024-01-15T17:48:32;11.50;;;5.83;;
25609;SDS011;13479;49.044;8.716;2024-01-15T17:50:57;12.63;;;6.43;;
25609;SDS011;13479;49.044;8.716;2024-01-15T17:53:24;12.77;;;5.80;;
25609;SDS011;13479;49.044;8.716;2024-01-15T17:55:50;13.63;;;6.67;;
25609;SDS011;13479;49.044;8.716;2024-01-15T17:58:15;13.67;;;5.77;;
25609;SDS011;13479;49.044;8.716;2024-01-15T18:00:40;14.83;;;6.40;;
25609;SDS011;13479;49.044;8.716;2024-01-15T18:03:05;14.03;;;6.57;;
25609;SDS011;13479;49.044;8.716;2024-01-15T18:05:31;12.83;;;6.13;;
25609;SDS011;13479;49.044;8.716;2024-01-15T18:07:56;13.17;;;6.43;;
25609;SDS011;13479;49.044;8.716;2024-01-15T18:10:21;13.23;;;5.67;;
25609;SDS011;13479;49.044;8.716;2024-01-15T18:12:47;13.97;;;6.17;;
25609;SDS011;13479;49.044;8.716;2024-01-15T18:15:12;14.37;;;6.40;;
25609;SDS011;13479;49.044;8.716;2024-01-15T18:17:38;12.87;;;6.30;;
25609;SDS011;13479;49.044;8.716;2024-01-15T18:20:03;12.77;;;5.60;;
25609;SDS011;13479;49.044;8.716;2024-01-15T18:22:29;13.50;;;5.57;;
25609;SDS011;13479;49.044;8.716;2024-01-15T18:24:55;11.67;;;5.43;;
25609;SDS011;13479;49.044;8.716;2024-01-15T18:27:21;10.90;;;5.07;;
25609;SDS011;13479;49.044;8.716;2024-01-15T18:29:46;13.17;;;6.13;;
25609;SDS011;13479;49.044;8.716;2024-01-15T18:32:12;7.43;;;4.07;;
25609;SDS011;13479;49.044;8.716;2024-01-15T18:34:37;9.23;;;3.10;;
25609;SDS011;13479;49.044;8.716;2024-01-15T18:37:02;12.63;;;4.47;;
25609;SDS011;13479;49.044;8.716;2024-01-15T18:39:28;13.47;;;5.70;;
25609;SDS011;13479;49.044;8.716;2024-01-15T18:41:53;12.03;;;4.93;;
25609;SDS011;13479;49.044;8.716;2024-01-15T18:44:19;12.93;;;5.37;;
25609;SDS011;13479;49.044;8.716;2024-01-15T18:46:44;13.23;;;4.90;;
25609;SDS011;13479;49.044;8.716;2024-01-15T18:49:09;14.27;;;6.03;;
25609;SDS011;13479;49.044;8.716;2024-01-15T18:51:36;10.43;;;4.83;;
25609;SDS011;13479;49.044;8.716;2024-01-15T18:54:01;11.07;;;4.73;;
25609;SDS011;13479;49.044;8.716;2024-01-15T18:56:26;12.03;;;5.50;;
25609;SDS011;13479;49.044;8.716;2024-01-15T18:58:52;11.07;;;5.37;;
25609;SDS011;13479;49.044;8.716;2024-01-15T19:01:27;12.70;;;5.80;;
25609;SDS011;13479;49.044;8.716;2024-01-15T19:03:53;10.00;;;4.57;;
25609;SDS011;13479;49.044;8.716;2024-01-15T19:06:18;9.57;;;3.87;;
25609;SDS011;13479;49.044;8.716;2024-01-15T19:08:43;11.03;;;5.10;;
25609;SDS011;13479;49.044;8.716;2024-01-15T19:11:09;11.00;;;5.23;;
25609;SDS011;13479;49.044;8.716;2024-01-15T19:13:34;11.37;;;4.73;;
25609;SDS011;13479;49.044;8.716;2024-01-15T19:16:00;13.30;;;5.13;;
25609;SDS011;13479;49.044;8.716;2024-01-15T19:18:25;12.00;;;4.53;;
25609;SDS011;13479;49.044;8.716;2024-01-15T19:20:53;10.30;;;5.27;;
25609;SDS011;13479;49.044;8.716;2024-01-15T19:23:19;10.70;;;5.07;;
25609;SDS011;13479;49.044;8.716;2024-01-15T19:25:44;11.40;;;4.73;;
25609;SDS011;13479;49.044;8.716;2024-01-15T19:28:10;11.27;;;4.87;;
25609;SDS011;13479;49.044;8.716;2024-01-15T19:30:35;14.90;;;6.30;;